METAR Data
IDs: Format: Raw Decoded Include TAF

Data at: 1306 UTC 21 Apr 2021

METAR for:KTNU (Newton Muni, IA, US)
Text:KTNU 211255Z AUTO 28005KT 10SM FEW040 FEW050 M00/M07 A3017 RMK A01
Temperature: 0.0°C ( 32°F)
Dewpoint: -7.0°C ( 19°F) [RH = 59%]
Pressure (altimeter):30.17 inches Hg (1021.8 mb)
Winds:from the W (280 degrees) at 6 MPH (5 knots; 2.6 m/s)
Visibility:10 or more sm (16+ km)
Ceiling:at least 12,000 feet AGL
Clouds: few clouds at 4000 feet AGL, few clouds at 5000 feet AGL
QC Flag:automated observation with no human augmentation